Time;durP1;ratioP1;P1;durP2;ratioP2;P2;SDS_P1;SDS_P2;PMS_P1;PMS_P2;Temp;Humidity;BMP_temperature;BMP_pressure;BME280_temperature;BME280_humidity;BME280_pressure;Samples;Min_cycle;Max_cycle;Signal;HPM_P1;HPM_P2
2022/09/23 00:00:48;;;;;;;9.33;7.67;;;;;;;;;;4992654;28;20455;-78
2022/09/23 00:03:16;;;;;;;7.30;6.60;;;;;;;;;;4992383;28;20455;-77
2022/09/23 00:05:43;;;;;;;8.50;7.57;;;;;;;;;;4997067;28;20535;-78
2022/09/23 00:08:11;;;;;;;7.63;7.03;;;;;;;;;;5003943;28;20472;-78
2022/09/23 00:10:39;;;;;;;7.80;7.10;;;;;;;;;;5006356;28;20448;-77
2022/09/23 00:13:07;;;;;;;7.50;6.90;;;;;;;;;;5011381;28;20456;-78
2022/09/23 00:15:39;;;;;;;8.77;7.97;;;;;;;;;;5009374;28;20479;-78
2022/09/23 00:18:07;;;;;;;7.30;6.70;;;;;;;;;;4999156;28;20441;-78
2022/09/23 00:20:34;;;;;;;6.97;6.37;;;;;;;;;;4992465;28;20444;-78
2022/09/23 00:23:01;;;;;;;7.90;7.30;;;;;;;;;;4991844;28;20936;-78
2022/09/23 00:25:29;;;;;;;8.10;7.40;;;;;;;;;;4991643;28;20480;-78
2022/09/23 00:27:57;;;;;;;8.57;7.77;;;;;;;;;;4985113;28;20519;-79
2022/09/23 00:30:25;;;;;;;7.57;6.97;;;;;;;;;;4991136;28;20480;-79
2022/09/23 00:32:53;;;;;;;8.50;7.57;;;;;;;;;;4992127;28;20444;-76
2022/09/23 00:35:20;;;;;;;7.73;7.03;;;;;;;;;;4995945;28;20448;-77
2022/09/23 00:37:47;;;;;;;7.90;7.30;;;;;;;;;;4996027;28;20469;-78
2022/09/23 00:40:14;;;;;;;9.00;8.20;;;;;;;;;;4995374;28;20459;-78
2022/09/23 00:42:46;;;;;;;8.10;7.50;;;;;;;;;;4995218;28;20472;-79
2022/09/23 00:45:13;;;;;;;8.07;7.33;;;;;;;;;;4994864;28;20520;-79
2022/09/23 00:47:44;;;;;;;7.80;7.27;;;;;;;;;;4995202;28;20521;-76
2022/09/23 00:50:15;;;;;;;7.97;7.33;;;;;;;;;;4995592;28;20480;-80
2022/09/23 00:52:42;;;;;;;7.70;7.00;;;;;;;;;;4994698;28;20455;-79
2022/09/23 00:55:11;;;;;;;8.23;7.43;;;;;;;;;;4995420;28;20456;-79
2022/09/23 00:57:39;;;;;;;8.07;7.27;;;;;;;;;;4995281;28;20473;-78
2022/09/23 01:00:07;;;;;;;8.20;7.50;;;;;;;;;;4995849;28;20456;-78
2022/09/23 01:02:36;;;;;;;7.87;7.10;;;;;;;;;;4995366;28;20555;-77
2022/09/23 01:05:04;;;;;;;8.60;7.70;;;;;;;;;;4997096;28;20483;-77
2022/09/23 01:07:33;;;;;;;9.43;8.30;;;;;;;;;;4996951;28;20448;-77
2022/09/23 01:10:01;;;;;;;8.00;7.40;;;;;;;;;;4995546;28;20475;-78
2022/09/23 01:12:37;;;;;;;8.20;7.10;;;;;;;;;;4994361;28;20479;-78
2022/09/23 01:15:11;;;;;;;8.77;7.97;;;;;;;;;;4994571;28;20456;-78
2022/09/23 01:17:42;;;;;;;8.77;7.97;;;;;;;;;;5003305;28;20425;-78
2022/09/23 01:20:20;;;;;;;8.57;7.87;;;;;;;;;;5010642;28;20515;-77
2022/09/23 01:22:54;;;;;;;7.47;6.87;;;;;;;;;;5010581;28;20460;-77
2022/09/23 01:25:32;;;;;;;10.83;8.30;;;;;;;;;;5002906;28;20553;-78
2022/09/23 01:28:08;;;;;;;7.63;7.03;;;;;;;;;;4994981;28;20900;-77
2022/09/23 01:30:43;;;;;;;7.53;7.03;;;;;;;;;;4994826;28;20444;-79
2022/09/23 01:33:13;;;;;;;8.23;7.53;;;;;;;;;;4994842;28;20538;-78
2022/09/23 01:35:46;;;;;;;8.47;7.77;;;;;;;;;;4995978;28;20448;-79
2022/09/23 01:38:17;;;;;;;6.90;6.40;;;;;;;;;;4996141;28;20464;-79
2022/09/23 01:40:47;;;;;;;8.40;7.70;;;;;;;;;;4995618;28;20491;-79
2022/09/23 01:43:18;;;;;;;7.80;7.10;;;;;;;;;;4994217;28;20940;-77
2022/09/23 01:45:48;;;;;;;8.13;7.53;;;;;;;;;;4994752;28;20484;-77
2022/09/23 01:48:17;;;;;;;7.43;6.80;;;;;;;;;;4994475;28;20467;-77
2022/09/23 01:50:57;;;;;;;7.80;7.00;;;;;;;;;;4995140;28;20829;-78
2022/09/23 01:53:27;;;;;;;7.10;6.50;;;;;;;;;;4994179;28;20452;-77
2022/09/23 01:55:56;;;;;;;9.60;7.50;;;;;;;;;;4994214;28;20471;-79
2022/09/23 01:58:25;;;;;;;7.57;6.87;;;;;;;;;;4994323;28;20480;-78
2022/09/23 02:00:56;;;;;;;7.13;6.53;;;;;;;;;;4993565;28;20452;-77
2022/09/23 02:03:26;;;;;;;8.30;7.50;;;;;;;;;;4993218;28;20460;-78
2022/09/23 02:05:56;;;;;;;8.10;7.40;;;;;;;;;;4994131;28;20534;-77
2022/09/23 02:08:25;;;;;;;7.67;7.07;;;;;;;;;;4994190;28;20551;-77
2022/09/23 02:10:55;;;;;;;8.10;7.50;;;;;;;;;;4993918;28;20448;-79
2022/09/23 02:13:24;;;;;;;7.33;6.83;;;;;;;;;;4993339;28;20539;-77
2022/09/23 02:15:51;;;;;;;7.40;6.90;;;;;;;;;;4993611;28;20592;-78
2022/09/23 02:18:22;;;;;;;9.50;8.60;;;;;;;;;;4994444;28;20472;-78
2022/09/23 02:20:51;;;;;;;8.30;6.50;;;;;;;;;;4994379;28;20905;-77
2022/09/23 02:23:21;;;;;;;8.87;8.00;;;;;;;;;;4993306;28;20447;-77
2022/09/23 02:25:53;;;;;;;7.80;7.10;;;;;;;;;;4993615;28;20495;-77
2022/09/23 02:28:24;;;;;;;8.90;8.10;;;;;;;;;;4993902;28;20618;-77
2022/09/23 02:30:55;;;;;;;8.53;7.80;;;;;;;;;;4994119;28;20453;-77
2022/09/23 02:33:25;;;;;;;7.20;6.60;;;;;;;;;;4994551;28;20448;-77
2022/09/23 02:35:54;;;;;;;9.07;8.27;;;;;;;;;;4993553;28;20440;-77
2022/09/23 02:38:25;;;;;;;8.73;8.03;;;;;;;;;;4993411;28;20472;-78
2022/09/23 02:40:54;;;;;;;9.77;8.70;;;;;;;;;;4993268;28;20956;-79
2022/09/23 02:43:22;;;;;;;8.43;7.80;;;;;;;;;;4993061;28;20452;-77
2022/09/23 02:45:50;;;;;;;8.70;8.00;;;;;;;;;;4993468;28;20583;-77
2022/09/23 02:48:19;;;;;;;9.33;8.37;;;;;;;;;;4992954;28;20476;-78
2022/09/23 02:50:47;;;;;;;9.10;8.30;;;;;;;;;;4993018;28;20452;-77
2022/09/23 02:53:15;;;;;;;9.27;8.37;;;;;;;;;;4992801;28;21219;-77
2022/09/23 02:55:42;;;;;;;9.13;8.40;;;;;;;;;;4991385;28;20587;-77
2022/09/23 02:58:10;;;;;;;7.83;7.23;;;;;;;;;;4993361;28;21016;-79
2022/09/23 03:00:44;;;;;;;8.77;7.87;;;;;;;;;;4994019;28;20483;-78
2022/09/23 03:03:26;;;;;;;8.13;7.40;;;;;;;;;;4992050;28;20459;-79
2022/09/23 03:05:58;;;;;;;8.80;8.10;;;;;;;;;;4992701;28;20488;-76
2022/09/23 03:08:35;;;;;;;8.50;7.80;;;;;;;;;;4993672;28;20453;-79
2022/09/23 03:11:05;;;;;;;10.53;8.23;;;;;;;;;;4993334;28;20475;-77
2022/09/23 03:13:37;;;;;;;9.83;9.00;;;;;;;;;;4992801;28;20456;-77
2022/09/23 03:16:09;;;;;;;9.00;8.30;;;;;;;;;;4993067;28;20456;-79
2022/09/23 03:18:40;;;;;;;9.20;8.30;;;;;;;;;;4992968;28;20567;-76
2022/09/23 03:21:09;;;;;;;8.50;7.80;;;;;;;;;;4993266;28;20483;-78
2022/09/23 03:23:38;;;;;;;9.80;8.90;;;;;;;;;;4992495;28;20537;-78
2022/09/23 03:26:07;;;;;;;9.67;8.87;;;;;;;;;;4992849;28;20488;-79
2022/09/23 03:28:36;;;;;;;10.13;9.23;;;;;;;;;;4992759;28;20814;-76
2022/09/23 03:31:04;;;;;;;10.53;8.70;;;;;;;;;;4991856;28;20455;-77
2022/09/23 03:33:32;;;;;;;9.00;8.20;;;;;;;;;;4991437;28;20455;-79
2022/09/23 03:38:51;;;;;;;9.40;8.60;;;;;;;;;;4990753;28;20491;-79
2022/09/23 03:41:21;;;;;;;10.53;9.43;;;;;;;;;;4984841;28;20555;-77
2022/09/23 03:43:52;;;;;;;8.90;8.20;;;;;;;;;;4991558;28;20450;-77
2022/09/23 03:46:19;;;;;;;9.53;8.70;;;;;;;;;;4992485;28;20758;-78
2022/09/23 03:48:46;;;;;;;9.57;8.87;;;;;;;;;;4992828;28;20483;-77
2022/09/23 03:51:20;;;;;;;9.67;8.87;;;;;;;;;;4993845;28;20529;-77
2022/09/23 03:53:48;;;;;;;8.67;7.97;;;;;;;;;;4991905;28;20448;-78
2022/09/23 03:56:15;;;;;;;10.37;9.20;;;;;;;;;;4992326;28;20452;-77
2022/09/23 03:58:44;;;;;;;10.97;9.53;;;;;;;;;;4993040;28;20464;-78
2022/09/23 04:01:11;;;;;;;11.00;9.93;;;;;;;;;;4992219;28;20491;-77
2022/09/23 04:03:38;;;;;;;10.37;9.13;;;;;;;;;;4992710;28;20472;-77
2022/09/23 04:06:06;;;;;;;9.20;8.50;;;;;;;;;;4992351;28;20490;-78
2022/09/23 04:08:33;;;;;;;10.87;9.87;;;;;;;;;;5007323;28;20549;-76
2022/09/23 04:11:02;;;;;;;10.37;9.27;;;;;;;;;;5006481;28;20516;-76
2022/09/23 04:13:30;;;;;;;11.10;10.13;;;;;;;;;;5006794;28;20515;-78
2022/09/23 04:15:57;;;;;;;9.87;8.97;;;;;;;;;;5007249;28;20443;-77
2022/09/23 04:18:26;;;;;;;11.87;10.67;;;;;;;;;;5002893;28;20475;-78
2022/09/23 04:20:57;;;;;;;10.60;9.63;;;;;;;;;;5007225;28;20475;-76
2022/09/23 04:23:24;;;;;;;10.80;9.70;;;;;;;;;;4998859;28;20448;-77
2022/09/23 04:25:51;;;;;;;11.70;9.93;;;;;;;;;;5007031;28;20475;-76
2022/09/23 04:28:20;;;;;;;11.53;10.50;;;;;;;;;;5006502;28;20472;-77
2022/09/23 04:30:47;;;;;;;11.87;10.20;;;;;;;;;;4998096;28;20471;-77
2022/09/23 04:33:15;;;;;;;10.40;9.40;;;;;;;;;;4992898;28;20449;-78
2022/09/23 04:35:42;;;;;;;10.43;9.40;;;;;;;;;;4995102;28;20596;-79
2022/09/23 04:38:10;;;;;;;10.93;9.83;;;;;;;;;;4994205;28;21034;-77
2022/09/23 04:40:37;;;;;;;10.90;10.00;;;;;;;;;;4994954;28;20463;-78
2022/09/23 04:43:04;;;;;;;12.43;10.97;;;;;;;;;;4999628;28;20450;-77
2022/09/23 04:45:33;;;;;;;10.77;9.77;;;;;;;;;;5012259;28;20446;-76
2022/09/23 04:48:01;;;;;;;14.33;10.60;;;;;;;;;;5012539;28;20480;-75
2022/09/23 04:50:28;;;;;;;12.10;11.00;;;;;;;;;;5007380;28;20456;-78
2022/09/23 04:52:55;;;;;;;12.07;10.87;;;;;;;;;;5004026;28;20459;-79
2022/09/23 04:55:22;;;;;;;12.60;11.27;;;;;;;;;;5000343;28;20474;-77
2022/09/23 04:57:49;;;;;;;12.80;10.43;;;;;;;;;;5008439;28;20454;-76
2022/09/23 05:00:17;;;;;;;11.67;10.57;;;;;;;;;;4997991;28;20451;-78
2022/09/23 05:02:46;;;;;;;12.17;10.90;;;;;;;;;;4996003;28;20453;-77
2022/09/23 05:05:14;;;;;;;11.20;10.10;;;;;;;;;;4994677;28;20451;-78
2022/09/23 05:07:42;;;;;;;13.90;10.90;;;;;;;;;;4996135;28;20481;-77
2022/09/23 05:10:09;;;;;;;10.53;9.63;;;;;;;;;;4995427;28;21014;-78
2022/09/23 05:12:36;;;;;;;13.20;11.00;;;;;;;;;;4993401;28;20466;-78
2022/09/23 05:15:04;;;;;;;12.80;11.53;;;;;;;;;;4995062;28;20436;-79
2022/09/23 05:17:31;;;;;;;10.80;9.77;;;;;;;;;;4994754;28;20538;-80
2022/09/23 05:19:59;;;;;;;12.83;10.93;;;;;;;;;;4997571;28;20471;-78
2022/09/23 05:22:27;;;;;;;12.33;10.80;;;;;;;;;;4997289;28;20510;-78
2022/09/23 05:24:54;;;;;;;12.67;10.53;;;;;;;;;;4996519;28;20458;-77
2022/09/23 05:27:21;;;;;;;11.47;10.37;;;;;;;;;;4998043;28;20486;-78
2022/09/23 05:29:48;;;;;;;12.60;11.40;;;;;;;;;;4998904;28;20474;-80
2022/09/23 05:32:16;;;;;;;13.60;12.03;;;;;;;;;;4996970;28;20469;-78
2022/09/23 05:34:43;;;;;;;12.53;11.43;;;;;;;;;;4996454;28;20452;-78
2022/09/23 05:37:11;;;;;;;13.03;11.83;;;;;;;;;;4996596;28;20445;-77
2022/09/23 05:39:38;;;;;;;13.47;12.13;;;;;;;;;;4996790;28;20472;-78
2022/09/23 05:42:06;;;;;;;12.57;10.80;;;;;;;;;;4996285;28;20456;-78
2022/09/23 05:44:33;;;;;;;12.80;10.60;;;;;;;;;;4996029;28;20448;-78
2022/09/23 05:47:00;;;;;;;17.90;11.13;;;;;;;;;;4996711;28;20484;-77
2022/09/23 05:49:27;;;;;;;12.20;11.00;;;;;;;;;;4996398;28;20517;-79
2022/09/23 05:51:54;;;;;;;11.30;10.20;;;;;;;;;;4996783;28;20794;-78
2022/09/23 05:54:23;;;;;;;12.07;11.03;;;;;;;;;;4995491;28;20446;-77
2022/09/23 05:56:50;;;;;;;11.07;10.00;;;;;;;;;;4995218;28;20445;-77
2022/09/23 05:59:17;;;;;;;11.73;10.60;;;;;;;;;;4996163;28;20804;-77
2022/09/23 06:01:44;;;;;;;11.70;10.50;;;;;;;;;;4996822;28;20440;-79
2022/09/23 06:04:13;;;;;;;13.57;12.17;;;;;;;;;;4998559;28;20456;-77
2022/09/23 06:06:41;;;;;;;12.30;10.03;;;;;;;;;;4994705;28;20530;-82
2022/09/23 06:09:10;;;;;;;15.57;11.27;;;;;;;;;;4994759;28;20574;-78
2022/09/23 06:11:38;;;;;;;10.87;9.67;;;;;;;;;;4995047;28;20475;-79
2022/09/23 06:14:08;;;;;;;11.03;10.03;;;;;;;;;;4993320;28;20441;-78
2022/09/23 06:16:36;;;;;;;11.50;10.30;;;;;;;;;;4994094;28;20444;-78
2022/09/23 06:19:04;;;;;;;11.10;9.87;;;;;;;;;;4995217;28;20863;-79
2022/09/23 06:21:32;;;;;;;11.47;10.27;;;;;;;;;;4994631;28;20607;-78
2022/09/23 06:24:00;;;;;;;12.23;11.13;;;;;;;;;;4994236;28;20452;-78
2022/09/23 06:26:30;;;;;;;11.93;10.70;;;;;;;;;;4993186;28;20583;-79
2022/09/23 06:28:58;;;;;;;12.10;10.83;;;;;;;;;;4994070;28;20506;-78
2022/09/23 06:31:25;;;;;;;12.70;10.20;;;;;;;;;;4994430;28;20440;-79
2022/09/23 06:33:53;;;;;;;11.33;10.23;;;;;;;;;;4994882;28;20479;-80
2022/09/23 06:36:20;;;;;;;13.23;10.70;;;;;;;;;;4993516;28;20817;-76
2022/09/23 06:38:48;;;;;;;13.07;11.50;;;;;;;;;;4994900;28;20496;-79
2022/09/23 06:41:15;;;;;;;11.83;10.27;;;;;;;;;;4994479;28;21012;-81
2022/09/23 06:43:42;;;;;;;11.60;10.40;;;;;;;;;;4994684;28;20918;-79
2022/09/23 06:46:14;;;;;;;10.93;9.83;;;;;;;;;;4994381;28;20448;-78
2022/09/23 06:48:42;;;;;;;10.20;9.20;;;;;;;;;;4994317;28;20480;-78
2022/09/23 06:51:11;;;;;;;11.30;10.37;;;;;;;;;;4994489;28;20483;-79
2022/09/23 06:53:38;;;;;;;11.33;10.23;;;;;;;;;;4993581;28;20570;-78
2022/09/23 06:56:06;;;;;;;10.83;9.90;;;;;;;;;;4993857;28;20456;-77
2022/09/23 06:58:33;;;;;;;11.40;10.20;;;;;;;;;;4993819;28;20468;-79
2022/09/23 07:01:01;;;;;;;10.70;9.80;;;;;;;;;;4994992;28;20606;-80
2022/09/23 07:03:30;;;;;;;10.07;8.87;;;;;;;;;;4993940;28;20444;-81
2022/09/23 07:05:58;;;;;;;11.90;10.10;;;;;;;;;;4994509;28;20453;-79
2022/09/23 07:08:25;;;;;;;9.70;8.90;;;;;;;;;;4993873;28;20841;-78
2022/09/23 07:10:53;;;;;;;11.77;10.77;;;;;;;;;;4995040;28;20556;-78
2022/09/23 07:13:20;;;;;;;10.97;9.80;;;;;;;;;;4993734;28;20456;-78
2022/09/23 07:15:50;;;;;;;11.10;9.27;;;;;;;;;;4993449;28;20911;-77
2022/09/23 07:18:17;;;;;;;12.63;9.73;;;;;;;;;;4993511;28;20479;-76
2022/09/23 07:20:47;;;;;;;11.27;10.20;;;;;;;;;;4996332;28;20506;-80
2022/09/23 07:23:14;;;;;;;10.67;9.50;;;;;;;;;;4993302;28;20580;-79
2022/09/23 07:25:41;;;;;;;10.13;8.80;;;;;;;;;;4993596;28;20445;-79
2022/09/23 07:28:08;;;;;;;10.90;10.00;;;;;;;;;;4992340;28;20862;-78
2022/09/23 07:30:37;;;;;;;9.70;8.90;;;;;;;;;;4992653;28;20455;-77
2022/09/23 07:33:04;;;;;;;10.13;9.10;;;;;;;;;;4991554;28;20487;-77
2022/09/23 07:35:31;;;;;;;9.70;8.80;;;;;;;;;;4991806;28;20463;-79
2022/09/23 07:38:00;;;;;;;11.03;9.70;;;;;;;;;;4992342;28;20502;-78
2022/09/23 07:40:27;;;;;;;9.93;8.67;;;;;;;;;;4993013;28;20448;-78
2022/09/23 07:42:54;;;;;;;9.50;8.60;;;;;;;;;;4993510;28;20526;-78
2022/09/23 07:45:22;;;;;;;9.30;8.50;;;;;;;;;;4993168;28;20519;-79
2022/09/23 07:47:49;;;;;;;12.23;9.40;;;;;;;;;;4993487;28;20492;-79
2022/09/23 07:50:17;;;;;;;9.87;9.03;;;;;;;;;;4992342;28;20520;-78
2022/09/23 07:52:45;;;;;;;11.30;10.07;;;;;;;;;;4992269;28;20551;-78
2022/09/23 07:55:13;;;;;;;10.70;9.70;;;;;;;;;;4992112;28;20456;-79
2022/09/23 07:57:40;;;;;;;12.20;8.90;;;;;;;;;;4992955;28;20809;-77
2022/09/23 08:00:08;;;;;;;9.63;8.73;;;;;;;;;;4992177;28;20543;-77
2022/09/23 08:02:35;;;;;;;9.70;8.70;;;;;;;;;;4991188;28;20487;-77
2022/09/23 08:05:04;;;;;;;8.60;7.80;;;;;;;;;;4991994;28;20451;-79
2022/09/23 08:07:33;;;;;;;9.90;8.87;;;;;;;;;;4993262;28;20487;-77
2022/09/23 08:10:00;;;;;;;13.23;9.20;;;;;;;;;;4992657;28;20566;-77
2022/09/23 08:12:29;;;;;;;10.60;8.90;;;;;;;;;;4988853;28;20453;-77
2022/09/23 08:14:58;;;;;;;9.93;7.20;;;;;;;;;;4981782;28;20472;-77
2022/09/23 08:17:25;;;;;;;9.17;8.27;;;;;;;;;;4991339;28;20465;-77
2022/09/23 08:19:52;;;;;;;8.50;7.80;;;;;;;;;;4989998;28;20477;-78
2022/09/23 08:22:19;;;;;;;8.20;7.47;;;;;;;;;;4994633;28;20444;-79
2022/09/23 08:24:46;;;;;;;10.70;7.50;;;;;;;;;;4993566;28;20444;-78
2022/09/23 08:27:13;;;;;;;8.80;7.53;;;;;;;;;;4995446;28;20897;-78
2022/09/23 08:29:42;;;;;;;12.73;7.67;;;;;;;;;;4994933;28;20472;-78
2022/09/23 08:32:09;;;;;;;8.00;7.20;;;;;;;;;;4993847;28;20456;-78
2022/09/23 08:34:36;;;;;;;8.00;7.13;;;;;;;;;;4992806;28;20831;-78
2022/09/23 08:37:03;;;;;;;9.50;7.70;;;;;;;;;;4992067;28;20554;-78
2022/09/23 08:39:30;;;;;;;7.93;7.17;;;;;;;;;;4992861;28;20449;-78
2022/09/23 08:42:04;;;;;;;8.07;7.27;;;;;;;;;;4991572;28;20537;-79
2022/09/23 08:44:37;;;;;;;8.77;7.47;;;;;;;;;;4989134;28;20897;-78
2022/09/23 08:47:11;;;;;;;8.10;7.37;;;;;;;;;;4988448;28;20479;-78
2022/09/23 08:49:40;;;;;;;8.47;6.83;;;;;;;;;;4988547;28;20469;-79
2022/09/23 08:52:10;;;;;;;7.73;7.13;;;;;;;;;;4993968;28;20440;-78
2022/09/23 08:54:37;;;;;;;7.87;7.17;;;;;;;;;;4994909;28;20482;-76
2022/09/23 08:57:05;;;;;;;8.47;7.27;;;;;;;;;;4996255;28;20954;-78
2022/09/23 08:59:36;;;;;;;7.90;6.13;;;;;;;;;;4998160;28;20468;-79
2022/09/23 09:02:07;;;;;;;10.20;8.00;;;;;;;;;;4997847;28;20499;-78
2022/09/23 09:04:39;;;;;;;8.00;6.97;;;;;;;;;;4995318;28;20455;-77
2022/09/23 09:07:12;;;;;;;6.90;6.20;;;;;;;;;;4997414;28;20519;-78
2022/09/23 09:09:41;;;;;;;12.43;6.30;;;;;;;;;;4997163;28;20476;-78
2022/09/23 09:12:13;;;;;;;7.17;6.47;;;;;;;;;;4996771;28;20448;-78
2022/09/23 09:14:43;;;;;;;7.53;6.90;;;;;;;;;;4995843;28;20456;-78
2022/09/23 09:17:16;;;;;;;9.63;7.50;;;;;;;;;;4997245;28;20836;-78
2022/09/23 09:19:52;;;;;;;6.30;5.80;;;;;;;;;;4999223;28;20480;-77
2022/09/23 09:22:24;;;;;;;7.87;7.17;;;;;;;;;;4998434;28;20448;-79
2022/09/23 09:24:54;;;;;;;9.17;7.43;;;;;;;;;;4998060;28;20523;-78
2022/09/23 09:27:21;;;;;;;8.03;6.83;;;;;;;;;;5001849;28;20487;-79
2022/09/23 09:29:50;;;;;;;7.33;6.73;;;;;;;;;;4997994;28;20803;-77
2022/09/23 09:32:25;;;;;;;7.23;6.53;;;;;;;;;;4999106;28;20479;-77
2022/09/23 09:34:55;;;;;;;9.43;6.73;;;;;;;;;;4997318;28;20952;-78
2022/09/23 09:37:25;;;;;;;7.63;6.17;;;;;;;;;;4995513;28;20444;-80
2022/09/23 09:39:52;;;;;;;6.63;5.80;;;;;;;;;;4994057;28;20468;-79
2022/09/23 09:42:22;;;;;;;8.20;5.80;;;;;;;;;;4995690;28;20459;-78
2022/09/23 09:44:53;;;;;;;6.80;4.93;;;;;;;;;;4994768;28;20971;-78
2022/09/23 09:47:29;;;;;;;7.30;5.93;;;;;;;;;;4994933;28;20580;-78
2022/09/23 09:49:59;;;;;;;6.43;5.77;;;;;;;;;;4994760;28;20542;-78
2022/09/23 09:52:28;;;;;;;6.73;5.97;;;;;;;;;;4994846;28;20574;-78
2022/09/23 09:54:59;;;;;;;8.33;6.63;;;;;;;;;;4994200;28;21098;-79
2022/09/23 09:57:31;;;;;;;8.47;5.50;;;;;;;;;;4994949;28;20531;-77
2022/09/23 09:59:58;;;;;;;7.23;5.83;;;;;;;;;;4995321;28;20988;-78
2022/09/23 10:02:29;;;;;;;9.50;6.50;;;;;;;;;;4994429;28;20452;-77
2022/09/23 10:05:01;;;;;;;6.23;5.70;;;;;;;;;;4993913;28;20463;-80
2022/09/23 10:07:29;;;;;;;6.03;5.00;;;;;;;;;;4996040;28;20491;-77
2022/09/23 10:09:56;;;;;;;6.47;5.30;;;;;;;;;;4995294;28;20468;-79
2022/09/23 10:12:24;;;;;;;5.17;4.83;;;;;;;;;;4994540;28;20448;-78
2022/09/23 10:14:52;;;;;;;5.37;4.97;;;;;;;;;;4994493;28;20451;-80
2022/09/23 10:17:21;;;;;;;5.43;4.87;;;;;;;;;;4994824;28;20456;-80
2022/09/23 10:19:51;;;;;;;5.20;4.73;;;;;;;;;;4995773;28;20464;-78
2022/09/23 10:22:21;;;;;;;6.60;4.53;;;;;;;;;;4995232;28;20535;-79
2022/09/23 10:24:49;;;;;;;5.33;4.83;;;;;;;;;;4995397;28;21155;-77
2022/09/23 10:27:16;;;;;;;4.70;4.40;;;;;;;;;;4994721;28;20448;-78
2022/09/23 10:29:49;;;;;;;4.83;4.37;;;;;;;;;;4991544;28;20499;-77
2022/09/23 10:32:36;;;;;;;4.83;4.40;;;;;;;;;;4994263;28;20535;-77
2022/09/23 10:35:12;;;;;;;4.83;4.43;;;;;;;;;;4994934;28;20575;-78
2022/09/23 10:37:41;;;;;;;5.83;5.27;;;;;;;;;;4994950;28;20479;-78
2022/09/23 10:48:52;;;;;;;5.13;4.73;;;;;;;;;;4996929;28;20495;-78
2022/09/23 10:51:24;;;;;;;4.83;4.43;;;;;;;;;;5000962;28;20452;-77
2022/09/23 10:53:57;;;;;;;5.10;4.60;;;;;;;;;;5001328;28;20514;-77
2022/09/23 10:56:30;;;;;;;5.40;4.93;;;;;;;;;;4998211;28;20452;-77
2022/09/23 10:59:13;;;;;;;7.33;4.80;;;;;;;;;;4996749;28;20495;-76
2022/09/23 11:01:43;;;;;;;10.07;5.43;;;;;;;;;;4991467;28;20444;-77
2022/09/23 11:04:16;;;;;;;5.13;4.77;;;;;;;;;;4991973;28;20456;-77
2022/09/23 11:06:53;;;;;;;9.13;4.10;;;;;;;;;;4992915;28;20448;-77
2022/09/23 11:09:29;;;;;;;5.13;4.20;;;;;;;;;;4993732;28;20516;-75
2022/09/23 11:12:05;;;;;;;8.70;5.40;;;;;;;;;;4992229;28;20523;-76
2022/09/23 11:14:41;;;;;;;4.27;3.97;;;;;;;;;;4991358;28;20460;-77
2022/09/23 11:17:16;;;;;;;6.73;4.13;;;;;;;;;;4990672;28;20455;-77
2022/09/23 11:19:54;;;;;;;4.70;4.17;;;;;;;;;;4991715;28;20514;-77
2022/09/23 11:22:36;;;;;;;3.97;3.67;;;;;;;;;;4992872;28;20999;-77
2022/09/23 11:25:18;;;;;;;4.67;4.27;;;;;;;;;;4993276;28;20908;-77
2022/09/23 11:27:56;;;;;;;4.53;4.23;;;;;;;;;;4991163;28;20514;-77
2022/09/23 11:30:23;;;;;;;3.60;3.30;;;;;;;;;;4993939;28;20462;-75
2022/09/23 11:33:04;;;;;;;3.53;3.23;;;;;;;;;;4994215;28;20471;-77
2022/09/23 11:35:34;;;;;;;6.73;3.50;;;;;;;;;;4990667;28;20452;-76
2022/09/23 11:38:06;;;;;;;4.30;3.87;;;;;;;;;;4990389;28;20451;-76
2022/09/23 11:40:35;;;;;;;5.60;4.43;;;;;;;;;;4990809;28;20495;-76
2022/09/23 11:43:06;;;;;;;3.97;3.67;;;;;;;;;;4989925;28;20507;-75
2022/09/23 11:45:35;;;;;;;5.07;4.63;;;;;;;;;;4990598;28;20463;-77
2022/09/23 11:48:04;;;;;;;4.40;4.00;;;;;;;;;;4990221;28;20487;-76
2022/09/23 11:50:35;;;;;;;5.67;3.90;;;;;;;;;;4990601;28;20542;-75
2022/09/23 11:53:08;;;;;;;4.00;3.57;;;;;;;;;;4989663;28;20433;-76
2022/09/23 11:55:36;;;;;;;4.40;3.87;;;;;;;;;;4990657;28;20467;-75
2022/09/23 11:58:06;;;;;;;5.30;4.90;;;;;;;;;;4990367;28;20444;-76
2022/09/23 12:00:37;;;;;;;4.10;3.90;;;;;;;;;;4990881;28;20991;-76
2022/09/23 12:03:08;;;;;;;6.40;4.07;;;;;;;;;;4989725;28;20470;-74
2022/09/23 12:05:36;;;;;;;3.80;3.57;;;;;;;;;;4990661;28;20456;-76
2022/09/23 12:08:08;;;;;;;4.13;3.83;;;;;;;;;;4990142;28;20491;-76
2022/09/23 12:10:41;;;;;;;4.20;3.80;;;;;;;;;;4989951;28;20452;-77
2022/09/23 12:13:15;;;;;;;4.50;4.10;;;;;;;;;;4970511;28;20487;-76
2022/09/23 12:15:46;;;;;;;3.33;3.13;;;;;;;;;;4970450;28;20489;-77
2022/09/23 12:18:34;;;;;;;4.80;3.50;;;;;;;;;;4970565;28;20473;-78
2022/09/23 12:21:07;;;;;;;4.07;3.67;;;;;;;;;;4971018;28;20449;-77
2022/09/23 12:23:44;;;;;;;6.33;3.70;;;;;;;;;;4970003;28;20464;-76
2022/09/23 12:26:16;;;;;;;4.27;3.97;;;;;;;;;;4970920;28;20448;-77
2022/09/23 12:28:44;;;;;;;4.03;3.73;;;;;;;;;;4973120;28;20636;-76
2022/09/23 12:31:12;;;;;;;5.13;3.57;;;;;;;;;;4974522;28;20449;-75
2022/09/23 12:33:40;;;;;;;4.13;3.83;;;;;;;;;;4973387;28;20883;-77
2022/09/23 12:36:08;;;;;;;4.13;3.77;;;;;;;;;;4974748;28;20457;-76
2022/09/23 12:38:36;;;;;;;5.33;4.83;;;;;;;;;;4974989;28;20884;-77
2022/09/23 12:41:19;;;;;;;4.90;4.43;;;;;;;;;;4975205;28;20541;-78
2022/09/23 12:43:52;;;;;;;5.40;5.00;;;;;;;;;;4973972;28;20523;-77
2022/09/23 12:46:24;;;;;;;5.07;4.67;;;;;;;;;;4981377;28;20594;-77
2022/09/23 12:49:01;;;;;;;4.93;4.53;;;;;;;;;;4994441;28;20634;-77
2022/09/23 12:51:29;;;;;;;6.33;5.13;;;;;;;;;;4993380;28;20955;-77
2022/09/23 12:54:00;;;;;;;5.73;4.13;;;;;;;;;;4992557;28;20451;-76
2022/09/23 12:56:49;;;;;;;5.83;5.33;;;;;;;;;;4993058;28;20653;-77
2022/09/23 12:59:26;;;;;;;5.40;5.00;;;;;;;;;;4994355;28;21157;-77
2022/09/23 13:01:54;;;;;;;6.17;5.07;;;;;;;;;;4994502;28;20452;-76
2022/09/23 13:07:17;;;;;;;5.13;4.73;;;;;;;;;;4994124;28;20436;-77
2022/09/23 13:09:47;;;;;;;4.53;4.23;;;;;;;;;;4995072;28;20554;-76
2022/09/23 13:12:17;;;;;;;6.03;5.43;;;;;;;;;;4997618;28;20952;-76
2022/09/23 13:14:47;;;;;;;4.70;4.40;;;;;;;;;;4998805;28;20443;-78
2022/09/23 13:17:24;;;;;;;6.10;5.60;;;;;;;;;;4995015;28;20491;-77
2022/09/23 13:19:58;;;;;;;5.20;4.73;;;;;;;;;;4994619;28;20456;-77
2022/09/23 13:22:41;;;;;;;5.20;4.80;;;;;;;;;;4996978;28;20474;-76
2022/09/23 13:25:16;;;;;;;5.60;5.20;;;;;;;;;;4996627;28;20436;-77
2022/09/23 13:27:46;;;;;;;5.50;4.77;;;;;;;;;;4992459;28;20435;-77
2022/09/23 13:30:20;;;;;;;6.53;5.93;;;;;;;;;;4992180;28;20517;-76
2022/09/23 13:32:49;;;;;;;6.40;4.93;;;;;;;;;;4991622;28;20498;-77
2022/09/23 13:35:17;;;;;;;5.53;5.00;;;;;;;;;;4991319;28;20528;-77
2022/09/23 13:37:46;;;;;;;4.80;4.43;;;;;;;;;;4993650;28;20543;-77
2022/09/23 13:40:18;;;;;;;5.63;5.10;;;;;;;;;;4992815;28;20563;-79
2022/09/23 13:42:47;;;;;;;6.70;6.03;;;;;;;;;;4992536;28;20448;-76
2022/09/23 13:45:15;;;;;;;4.60;4.30;;;;;;;;;;4992571;28;20483;-77
2022/09/23 13:47:45;;;;;;;4.40;4.00;;;;;;;;;;4992957;28;20451;-77
2022/09/23 13:50:17;;;;;;;4.50;4.20;;;;;;;;;;4992419;28;20488;-76
2022/09/23 13:52:44;;;;;;;4.77;4.37;;;;;;;;;;4992131;28;20444;-79
2022/09/23 13:55:23;;;;;;;6.33;4.60;;;;;;;;;;4993433;28;20459;-75
2022/09/23 13:57:57;;;;;;;7.17;4.73;;;;;;;;;;4992312;28;20448;-76
2022/09/23 14:00:24;;;;;;;5.40;4.90;;;;;;;;;;4992370;28;20460;-77
2022/09/23 14:02:53;;;;;;;5.10;4.70;;;;;;;;;;4992863;28;20810;-77
2022/09/23 14:05:23;;;;;;;4.90;4.50;;;;;;;;;;4992562;28;20456;-77
2022/09/23 14:07:50;;;;;;;4.50;4.10;;;;;;;;;;4992352;28;20440;-76
2022/09/23 14:10:19;;;;;;;4.93;4.00;;;;;;;;;;4991966;28;20488;-77
2022/09/23 14:12:47;;;;;;;4.20;3.80;;;;;;;;;;4991687;28;20937;-76
2022/09/23 14:15:16;;;;;;;4.63;4.13;;;;;;;;;;4993659;28;20811;-76
2022/09/23 14:17:46;;;;;;;4.33;3.70;;;;;;;;;;4993285;28;20479;-76
2022/09/23 14:20:15;;;;;;;5.40;4.90;;;;;;;;;;4992056;28;20559;-76
2022/09/23 14:22:42;;;;;;;4.43;3.90;;;;;;;;;;4991765;28;20891;-77
2022/09/23 14:25:13;;;;;;;4.93;4.30;;;;;;;;;;4991912;28;20448;-77
2022/09/23 14:27:41;;;;;;;5.20;3.63;;;;;;;;;;4992175;28;20536;-77
2022/09/23 14:30:14;;;;;;;5.10;3.73;;;;;;;;;;4992960;28;20487;-77
2022/09/23 14:32:41;;;;;;;4.63;4.10;;;;;;;;;;4991764;28;20602;-78
2022/09/23 14:35:19;;;;;;;5.27;4.77;;;;;;;;;;4991795;28;20456;-76
2022/09/23 14:40:32;;;;;;;5.73;3.30;;;;;;;;;;4991945;28;20943;-77
2022/09/23 14:43:00;;;;;;;4.70;4.30;;;;;;;;;;4990939;28;20481;-76
2022/09/23 14:45:30;;;;;;;6.80;4.70;;;;;;;;;;4991370;28;20448;-78
2022/09/23 14:47:59;;;;;;;4.77;4.40;;;;;;;;;;4991914;28;20440;-76
2022/09/23 14:50:46;;;;;;;5.07;4.57;;;;;;;;;;4991114;28;20484;-77
2022/09/23 14:53:31;;;;;;;4.10;3.70;;;;;;;;;;4991186;28;20448;-77
2022/09/23 14:56:08;;;;;;;3.83;3.40;;;;;;;;;;4990982;28;20463;-76
2022/09/23 14:58:41;;;;;;;4.30;3.93;;;;;;;;;;4990934;28;20464;-75
2022/09/23 15:01:24;;;;;;;4.70;4.30;;;;;;;;;;4991961;28;20510;-76
2022/09/23 15:03:51;;;;;;;5.10;4.60;;;;;;;;;;4990241;28;20440;-76
2022/09/23 15:06:19;;;;;;;4.80;4.40;;;;;;;;;;4990610;28;20495;-76
2022/09/23 15:08:46;;;;;;;4.43;3.93;;;;;;;;;;4990360;28;20460;-76
2022/09/23 15:11:13;;;;;;;3.77;3.47;;;;;;;;;;4988649;28;20506;-77